SEMIO ESMQ-ESMQ

Flight info

Callsign SEMIO
Flight time 0h 10m
Altitude
Route
Aircraft DA40

Departure

Time 2026-05-06 17:59
Airport Kalmar Airport (ESMQ)

Arrival

Time 2026-05-06 18:09
Airport Kalmar Airport (ESMQ)
Time Latitude Longitude Altitude Speed Heading
2026-05-06 17:48 56.67878 16.28411 27 ft 0 kts 200°
2026-05-06 17:49 56.67873 16.28397 27 ft 1 kts 275°
2026-05-06 17:49 56.67890 16.28397 27 ft 8 kts 25°
2026-05-06 17:49 56.67932 16.28377 27 ft 7 kts 303°
2026-05-06 17:49 56.68002 16.28238 27 ft 23 kts 327°
2026-05-06 17:50 56.68166 16.28210 27 ft 24 kts
2026-05-06 17:50 56.68350 16.28222 27 ft 28 kts
2026-05-06 17:50 56.68541 16.28231 27 ft 27 kts
2026-05-06 17:50 56.68722 16.28208 27 ft 26 kts 340°
2026-05-06 17:51 56.68889 16.28089 27 ft 26 kts 338°
2026-05-06 17:51 56.69056 16.27959 27 ft 26 kts 333°
2026-05-06 17:51 56.69218 16.27806 27 ft 27 kts 333°
2026-05-06 17:51 56.69384 16.27646 27 ft 27 kts 333°
2026-05-06 17:52 56.69550 16.27490 27 ft 27 kts 332°
2026-05-06 17:52 56.69674 16.27455 27 ft 9 kts 40°
2026-05-06 17:52 56.69683 16.27474 27 ft 0 kts 54°
2026-05-06 17:56 56.69704 16.27555 27 ft 12 kts 83°
2026-05-06 17:56 56.69662 16.27690 29 ft 12 kts 154°
2026-05-06 17:56 56.69651 16.27700 30 ft 0 kts 151°
2026-05-06 17:57 56.69588 16.27761 30 ft 34 kts 152°
2026-05-06 17:58 56.69221 16.28100 89 ft 73 kts 146°
2026-05-06 17:58 56.68715 16.28584 233 ft 89 kts 147°
2026-05-06 17:58 56.68125 16.29128 363 ft 96 kts 148°
2026-05-06 17:58 56.67742 16.29492 517 ft 93 kts 147°
2026-05-06 17:59 56.67201 16.30229 622 ft 100 kts 121°
2026-05-06 17:59 56.67138 16.31431 802 ft 100 kts 79°
2026-05-06 17:59 56.67269 16.32706 988 ft 101 kts 79°
2026-05-06 17:59 56.67397 16.33989 1090 ft 105 kts 79°
2026-05-06 18:00 56.67481 16.35670 1168 ft 102 kts 78°
2026-05-06 18:00 56.67588 16.36536 1190 ft 105 kts 78°
2026-05-06 18:00 56.67731 16.37827 1253 ft 104 kts 78°
2026-05-06 18:00 56.67855 16.39149 1261 ft 105 kts 81°
2026-05-06 18:01 56.67949 16.40440 1325 ft 103 kts 83°
2026-05-06 18:01 56.68001 16.41779 1313 ft 108 kts 85°
2026-05-06 18:01 56.67995 16.43103 1403 ft 104 kts 91°
2026-05-06 18:01 56.68001 16.44450 1311 ft 106 kts 83°
2026-05-06 18:02 56.68081 16.45780 1237 ft 104 kts 82°
2026-05-06 18:02 56.68156 16.47079 1189 ft 102 kts 82°
2026-05-06 18:02 56.68233 16.48346 1144 ft 101 kts 82°
2026-05-06 18:02 56.68304 16.49629 1120 ft 99 kts 82°
2026-05-06 18:03 56.68378 16.50890 1033 ft 104 kts 82°
2026-05-06 18:03 56.68475 16.52156 1207 ft 96 kts 81°
2026-05-06 18:03 56.68566 16.53278 1411 ft 90 kts 79°
2026-05-06 18:03 56.68634 16.54556 1378 ft 109 kts 85°
2026-05-06 18:04 56.68688 16.55937 1352 ft 110 kts 84°
2026-05-06 18:04 56.68743 16.57322 1346 ft 110 kts 84°
2026-05-06 18:04 56.69116 16.58359 1381 ft 113 kts 16°
2026-05-06 18:04 56.69503 16.57622 1200 ft 127 kts 190°
2026-05-06 18:05 56.68664 16.57262 986 ft 115 kts 176°
2026-05-06 18:05 56.68029 16.56728 976 ft 112 kts 215°
2026-05-06 18:05 56.67386 16.57057 1052 ft 105 kts 176°
2026-05-06 18:05 56.66595 16.57155 1071 ft 123 kts 174°
2026-05-06 18:06 56.66290 16.56006 967 ft 115 kts 258°
2026-05-06 18:06 56.65613 16.55597 793 ft 113 kts 165°
2026-05-06 18:06 56.64960 16.55922 770 ft 104 kts 149°
2026-05-06 18:06 56.64256 16.56463 622 ft 112 kts 154°
2026-05-06 18:07 56.63558 16.56980 578 ft 113 kts 156°
2026-05-06 18:07 56.62815 16.57410 563 ft 101 kts 160°
2026-05-06 18:07 56.62160 16.57943 554 ft 113 kts 150°
2026-05-06 18:07 56.61386 16.58220 552 ft 122 kts 195°
2026-05-06 18:08 56.60936 16.56942 509 ft 127 kts 267°
2026-05-06 18:08 56.61328 16.55613 497 ft 118 kts 326°
2026-05-06 18:08 56.61601 16.54657 732 ft 100 kts 198°
2026-05-06 18:08 56.61449 16.55017 755 ft 97 kts 320°
2026-05-06 18:09 56.61442 16.53653 652 ft 129 kts 241°
2026-05-06 18:09 56.61079 16.53110 124 ft 6 kts 296°
2026-05-06 18:09 56.61186 16.52880 126 ft 49 kts 321°
2026-05-06 18:09 56.61585 16.52434 253 ft 72 kts 335°
2026-05-06 18:10 56.62052 16.51975 458 ft 80 kts 343°
2026-05-06 18:10 56.62334 16.52473 521 ft 91 kts 132°
2026-05-06 18:10 56.61753 16.53000 584 ft 96 kts 127°
2026-05-06 18:10 56.61236 16.53720 686 ft 104 kts 187°
2026-05-06 18:11 56.61382 16.52756 667 ft 111 kts 335°
2026-05-06 18:11 56.62017 16.51853 784 ft 119 kts 321°
2026-05-06 18:11 56.62650 16.50892 931 ft 120 kts 325°
2026-05-06 18:11 56.63342 16.49987 985 ft 124 kts 333°
2026-05-06 18:12 56.64087 16.49256 1003 ft 123 kts 345°
2026-05-06 18:12 56.64901 16.48827 857 ft 113 kts 347°
2026-05-06 18:12 56.65701 16.48303 532 ft 128 kts 341°
2026-05-06 18:12 56.66502 16.47680 304 ft 122 kts 333°
2026-05-06 18:13 56.66735 16.46234 108 ft 132 kts 276°
2026-05-06 18:13 56.66966 16.44651 92 ft 129 kts 289°
2026-05-06 18:13 56.67255 16.43102 36 ft 129 kts 292°
2026-05-06 18:13 56.67545 16.41582 31 ft 127 kts 292°
2026-05-06 18:14 56.67876 16.40122 53 ft 122 kts 284°
2026-05-06 18:14 56.68189 16.38736 35 ft 119 kts 328°
2026-05-06 18:14 56.68538 16.37465 69 ft 122 kts 265°
2026-05-06 18:14 56.68159 16.37803 142 ft 101 kts 103°
2026-05-06 18:15 56.67922 16.39150 41 ft 118 kts 111°
2026-05-06 18:15 56.67607 16.40517 41 ft 117 kts 98°
2026-05-06 18:15 56.67401 16.41940 20 ft 118 kts 107°
2026-05-06 18:15 56.67142 16.43326 17 ft 114 kts 107°
2026-05-06 18:16 56.66883 16.44669 17 ft 112 kts 107°
2026-05-06 18:16 56.66680 16.46012 36 ft 107 kts 99°
2026-05-06 18:16 56.66649 16.47325 84 ft 100 kts 88°
2026-05-06 18:16 56.66659 16.48442 368 ft 93 kts 76°
2026-05-06 18:17 56.66954 16.49648 261 ft 109 kts 69°
2026-05-06 18:17 56.67279 16.50778 370 ft 108 kts 66°
2026-05-06 18:17 56.66886 16.51523 471 ft 118 kts 202°
2026-05-06 18:17 56.66263 16.51114 658 ft 82 kts 119°
2026-05-06 18:18 56.66138 16.52191 514 ft 98 kts 50°
2026-05-06 18:18 56.66780 16.51840 529 ft 125 kts 312°
2026-05-06 18:18 56.67160 16.50393 414 ft 126 kts 294°
2026-05-06 18:18 56.67487 16.48999 293 ft 116 kts 298°
2026-05-06 18:19 56.67907 16.47971 285 ft 96 kts 15°
2026-05-06 18:19 56.68254 16.48862 357 ft 93 kts 20°
2026-05-06 18:19 56.68879 16.48420 379 ft 106 kts 345°
2026-05-06 18:19 56.69607 16.48381 532 ft 106 kts
2026-05-06 18:20 56.70351 16.48503 673 ft 111 kts 12°
2026-05-06 18:20 56.71097 16.48959 761 ft 118 kts 31°
2026-05-06 18:20 56.71851 16.49658 831 ft 123 kts 28°
2026-05-06 18:20 56.72660 16.50321 661 ft 133 kts 25°
2026-05-06 18:21 56.73508 16.50940 567 ft 131 kts 30°
2026-05-06 18:21 56.74288 16.51704 561 ft 126 kts 26°
2026-05-06 18:21 56.75097 16.52387 411 ft 129 kts 28°
2026-05-06 18:21 56.75906 16.53086 292 ft 128 kts 28°
2026-05-06 18:22 56.76697 16.53749 318 ft 121 kts 25°
2026-05-06 18:22 56.77458 16.54350 368 ft 118 kts 25°
2026-05-06 18:22 56.78252 16.54932 351 ft 125 kts 29°
2026-05-06 18:22 56.78995 16.55729 335 ft 124 kts 31°
2026-05-06 18:23 56.79742 16.56410 315 ft 119 kts 30°
2026-05-06 18:23 56.80482 16.57123 315 ft 121 kts 29°
2026-05-06 18:23 56.81239 16.57819 312 ft 122 kts 27°
2026-05-06 18:23 56.81909 16.58635 342 ft 118 kts 55°
2026-05-06 18:24 56.82234 16.59991 342 ft 119 kts 68°
2026-05-06 18:24 56.82735 16.61106 340 ft 118 kts 28°
2026-05-06 18:24 56.83405 16.61932 331 ft 115 kts 49°
2026-05-06 18:24 56.83948 16.63014 306 ft 116 kts 49°
2026-05-06 18:25 56.84512 16.63962 302 ft 101 kts 37°
2026-05-06 18:25 56.85026 16.64573 284 ft 78 kts 16°
2026-05-06 18:25 56.85536 16.64844 260 ft 80 kts 24°
2026-05-06 18:25 56.85987 16.65284 135 ft 66 kts 29°
2026-05-06 18:26 56.86363 16.65635 190 ft 58 kts
2026-05-06 18:26 56.86693 16.65000 233 ft 83 kts 310°
2026-05-06 18:26 56.87202 16.64600 324 ft 95 kts 30°
2026-05-06 18:26 56.87708 16.64720 510 ft 111 kts 278°
2026-05-06 18:27 56.88109 16.64919 586 ft 104 kts 70°
2026-05-06 18:27 56.88280 16.66211 468 ft 105 kts 80°
2026-05-06 18:27 56.88351 16.67549 305 ft 105 kts 85°
2026-05-06 18:27 56.88362 16.68957 380 ft 116 kts 90°
2026-05-06 18:28 56.88094 16.70416 410 ft 124 kts 103°
2026-05-06 18:28 56.88389 16.71708 589 ft 120 kts 29°
2026-05-06 18:28 56.89237 16.72013 587 ft 126 kts 12°
2026-05-06 18:28 56.90088 16.72290 629 ft 124 kts 13°
2026-05-06 18:29 56.90959 16.72607 525 ft 130 kts 11°
2026-05-06 18:29 56.91831 16.72847 533 ft 124 kts 13°
2026-05-06 18:29 56.92671 16.73131 570 ft 120 kts 18°
2026-05-06 18:29 56.93436 16.73727 556 ft 120 kts 27°
2026-05-06 18:30 56.94178 16.74406 581 ft 124 kts 27°
2026-05-06 18:30 56.94959 16.75115 591 ft 123 kts 28°
2026-05-06 18:30 56.95765 16.75784 472 ft 127 kts 24°
2026-05-06 18:30 56.96574 16.76367 462 ft 126 kts 21°
2026-05-06 18:31 56.97423 16.76879 350 ft 129 kts 18°
2026-05-06 18:31 56.98259 16.77434 223 ft 128 kts 25°
2026-05-06 18:31 56.99035 16.78093 229 ft 119 kts 33°
2026-05-06 18:31 56.99698 16.78965 282 ft 117 kts 38°
2026-05-06 18:32 57.00322 16.79829 475 ft 113 kts 38°
2026-05-06 18:32 57.01024 16.80672 446 ft 124 kts 30°
2026-05-06 18:32 57.01815 16.81379 368 ft 127 kts 30°
2026-05-06 18:32 57.02597 16.82071 393 ft 121 kts 23°
2026-05-06 18:33 57.02922 16.83265 454 ft 115 kts 94°
2026-05-06 18:33 57.03225 16.84518 483 ft 117 kts 31°
2026-05-06 18:33 57.04016 16.85109 367 ft 128 kts 20°
2026-05-06 18:33 57.04836 16.85588 340 ft 117 kts 25°
2026-05-06 18:34 57.05520 16.86206 180 ft 103 kts 18°
2026-05-06 18:34 57.06163 16.86269 83 ft 79 kts
2026-05-06 18:34 57.06641 16.86125 57 ft 70 kts 349°
2026-05-06 18:34 57.07120 16.85817 151 ft 91 kts 277°
2026-05-06 18:35 57.06658 16.84955 206 ft 112 kts 211°
2026-05-06 18:35 57.05929 16.84303 357 ft 120 kts 198°
2026-05-06 18:35 57.05125 16.83748 419 ft 128 kts 198°
2026-05-06 18:35 57.04257 16.83217 411 ft 135 kts 194°
2026-05-06 18:36 57.03377 16.82563 401 ft 139 kts 205°
2026-05-06 18:36 57.02555 16.81718 422 ft 139 kts 209°
2026-05-06 18:36 57.01717 16.80861 461 ft 131 kts 206°
2026-05-06 18:36 57.00907 16.80073 466 ft 130 kts 206°
2026-05-06 18:37 57.00075 16.79285 339 ft 138 kts 206°
2026-05-06 18:37 56.99506 16.78790 331 ft 136 kts 202°
2026-05-06 18:37 56.98355 16.77849 286 ft 136 kts 200°
2026-05-06 18:37 56.97494 16.77222 299 ft 132 kts 199°
2026-05-06 18:38 56.96629 16.76643 255 ft 134 kts 203°
2026-05-06 18:38 56.95817 16.75829 249 ft 133 kts 207°
2026-05-06 18:38 56.94975 16.75088 220 ft 134 kts 204°
2026-05-06 18:38 56.94157 16.74349 315 ft 128 kts 204°
2026-05-06 18:39 56.93342 16.73740 366 ft 129 kts 198°
2026-05-06 18:39 56.92505 16.73171 430 ft 129 kts 196°
2026-05-06 18:39 56.91612 16.72823 447 ft 131 kts 187°
2026-05-06 18:40 56.89768 16.72314 369 ft 134 kts 182°
2026-05-06 18:40 56.88909 16.71977 383 ft 126 kts 214°
2026-05-06 18:40 56.88485 16.70596 345 ft 125 kts 249°
2026-05-06 18:40 56.88145 16.69177 315 ft 122 kts 242°
2026-05-06 18:41 56.87701 16.67853 262 ft 121 kts 237°
2026-05-06 18:41 56.87255 16.66553 315 ft 123 kts 237°
2026-05-06 18:41 56.86565 16.65877 200 ft 103 kts 207°
2026-05-06 18:41 56.86032 16.65323 127 ft 75 kts 206°
2026-05-06 18:42 56.85560 16.64873 253 ft 79 kts 204°
2026-05-06 18:42 56.85200 16.64113 329 ft 84 kts 252°
2026-05-06 18:42 56.84906 16.62949 346 ft 112 kts 250°
2026-05-06 18:42 56.84604 16.61518 422 ft 125 kts 245°
2026-05-06 18:43 56.83990 16.60261 353 ft 141 kts 219°
2026-05-06 18:43 56.83122 16.59374 290 ft 145 kts 203°
2026-05-06 18:43 56.82200 16.58576 247 ft 147 kts 203°
2026-05-06 18:43 56.81293 16.57826 338 ft 139 kts 204°
2026-05-06 18:44 56.80421 16.57116 394 ft 133 kts 203°
2026-05-06 18:44 56.79593 16.56340 337 ft 135 kts 205°
2026-05-06 18:44 56.78755 16.55604 302 ft 135 kts 205°
2026-05-06 18:44 56.77912 16.54847 244 ft 134 kts 205°
2026-05-06 18:45 56.77077 16.54066 183 ft 138 kts 206°
2026-05-06 18:45 56.76525 16.53532 229 ft 133 kts 207°
2026-05-06 18:45 56.75705 16.52768 246 ft 132 kts 204°
2026-05-06 18:45 56.74871 16.52123 285 ft 128 kts 197°
2026-05-06 18:46 56.74005 16.51652 270 ft 132 kts 195°
2026-05-06 18:46 56.73123 16.51170 253 ft 134 kts 194°
2026-05-06 18:46 56.72013 16.50333 317 ft 131 kts 202°
2026-05-06 18:46 56.71449 16.49877 287 ft 132 kts 201°
2026-05-06 18:47 56.70613 16.49213 302 ft 129 kts 202°
2026-05-06 18:47 56.69792 16.48522 318 ft 128 kts 205°
2026-05-06 18:47 56.69211 16.47354 330 ft 126 kts 240°
2026-05-06 18:47 56.68714 16.46039 344 ft 129 kts 230°
2026-05-06 18:48 56.68155 16.44740 342 ft 131 kts 242°
2026-05-06 18:48 56.68170 16.43157 489 ft 121 kts 295°
2026-05-06 18:48 56.68474 16.41764 697 ft 119 kts 296°
2026-05-06 18:48 56.68813 16.40370 746 ft 127 kts 297°
2026-05-06 18:49 56.69252 16.38938 739 ft 132 kts 304°
2026-05-06 18:49 56.69562 16.37324 650 ft 142 kts 278°
2026-05-06 18:49 56.69436 16.35634 680 ft 117 kts 253°
2026-05-06 18:49 56.69810 16.34935 696 ft 87 kts 28°
2026-05-06 18:50 56.69892 16.35853 697 ft 91 kts 130°
2026-05-06 18:50 56.69303 16.35748 655 ft 109 kts 233°
2026-05-06 18:50 56.69060 16.34430 701 ft 115 kts 258°
2026-05-06 18:50 56.68920 16.32967 643 ft 119 kts 262°
2026-05-06 18:51 56.69286 16.31929 683 ft 102 kts 336°
2026-05-06 18:51 56.69924 16.31293 638 ft 106 kts 334°
2026-05-06 18:51 56.70598 16.30613 505 ft 111 kts 332°
2026-05-06 18:51 56.71241 16.29844 438 ft 111 kts 330°
2026-05-06 18:52 56.71907 16.29098 392 ft 111 kts 332°
2026-05-06 18:52 56.72461 16.28260 673 ft 102 kts 280°
2026-05-06 18:52 56.72230 16.27040 881 ft 111 kts 231°
2026-05-06 18:52 56.71551 16.26205 547 ft 121 kts 189°
2026-05-06 18:53 56.70853 16.26562 322 ft 92 kts 150°
2026-05-06 18:53 56.70335 16.27035 210 ft 79 kts 149°
2026-05-06 18:53 56.69856 16.27500 107 ft 78 kts 144°
2026-05-06 18:53 56.69384 16.27954 35 ft 74 kts 145°
2026-05-06 18:54 56.68999 16.28342 28 ft 53 kts 147°
2026-05-06 18:54 56.68701 16.28620 26 ft 49 kts 155°
2026-05-06 18:54 56.68367 16.28930 27 ft 53 kts 153°
2026-05-06 18:54 56.68073 16.29209 26 ft 39 kts 152°
2026-05-06 18:55 56.67895 16.29115 27 ft 29 kts 222°
2026-05-06 18:55 56.67860 16.28822 27 ft 25 kts 264°
2026-05-06 18:55 56.67902 16.28507 27 ft 26 kts 289°
2026-05-06 18:55 56.67882 16.28414 27 ft 0 kts 201°
2026-05-06 18:56 56.67875 16.28409 27 ft 0 kts 198°